Time;durP1;ratioP1;P1;durP2;ratioP2;P2;SDS_P1;SDS_P2;PMS_P1;PMS_P2;Temp;Humidity;BMP_temperature;BMP_pressure;BME280_temperature;BME280_humidity;BME280_pressure;Samples;Min_cycle;Max_cycle;Signal;HPM_P1;HPM_P2
2021/06/15 00:01:30;;;;;;;3.22;2.72;;;24.30;87.50;;;;;;5074644;28;20028;-77
2021/06/15 00:03:56;;;;;;;4.40;2.92;;;24.30;87.20;;;;;;5093133;28;20115;-77
2021/06/15 00:06:22;;;;;;;2.85;2.63;;;24.30;86.60;;;;;;5112379;28;20435;-77
2021/06/15 00:08:48;;;;;;;3.13;2.85;;;24.20;85.50;;;;;;5112949;28;20020;-77
2021/06/15 00:11:13;;;;;;;5.25;2.70;;;24.20;85.20;;;;;;5095259;28;20526;-77
2021/06/15 00:13:39;;;;;;;2.80;2.60;;;24.20;84.30;;;;;;5113376;28;20051;-77
2021/06/15 00:16:05;;;;;;;3.13;2.85;;;24.10;83.80;;;;;;5108137;28;20028;-77
2021/06/15 00:18:33;;;;;;;3.13;2.83;;;24.10;83.80;;;;;;5112621;28;20039;-76
2021/06/15 00:20:59;;;;;;;4.57;2.60;;;24.10;83.90;;;;;;5102821;28;20054;-77
2021/06/15 00:23:25;;;;;;;3.90;2.63;;;24.10;84.30;;;;;;5092057;28;20427;-77
2021/06/15 00:25:50;;;;;;;6.93;2.80;;;24.00;84.10;;;;;;5092134;28;20028;-76
2021/06/15 00:28:16;;;;;;;3.17;2.88;;;24.00;84.10;;;;;;5074476;28;20520;-76
2021/06/15 00:30:42;;;;;;;4.05;2.60;;;24.00;84.00;;;;;;5092868;28;20062;-76
2021/06/15 00:33:08;;;;;;;2.70;2.50;;;24.00;84.30;;;;;;5102798;28;20118;-76
2021/06/15 00:35:34;;;;;;;3.15;2.83;;;24.00;85.20;;;;;;5113596;28;20169;-77
2021/06/15 00:38:00;;;;;;;3.30;2.50;;;24.00;83.60;;;;;;5113295;28;20424;-77
2021/06/15 00:40:26;;;;;;;2.72;2.53;;;24.00;84.30;;;;;;5095239;28;20015;-77
2021/06/15 00:42:52;;;;;;;5.18;2.78;;;23.90;85.40;;;;;;5093890;28;20024;-77
2021/06/15 00:45:24;;;;;;;3.25;2.75;;;23.90;86.20;;;;;;5074344;28;20457;-77
2021/06/15 00:47:51;;;;;;;2.58;2.35;;;23.90;86.70;;;;;;5074760;28;20024;-77
2021/06/15 00:50:19;;;;;;;2.92;2.72;;;23.90;87.10;;;;;;5092753;28;20024;-77
2021/06/15 00:52:45;;;;;;;7.25;3.17;;;23.80;87.50;;;;;;5074731;28;20089;-77
2021/06/15 00:55:12;;;;;;;8.00;2.47;;;23.80;87.80;;;;;;5092874;28;20016;-77
2021/06/15 00:57:38;;;;;;;4.50;2.75;;;23.80;88.30;;;;;;5092701;28;20020;-77
2021/06/15 01:00:24;;;;;;;3.42;2.97;;;23.90;87.50;;;;;;5092718;28;20385;-77
2021/06/15 01:02:49;;;;;;;2.97;2.70;;;23.80;87.20;;;;;;5074360;28;20035;-77
2021/06/15 01:05:15;;;;;;;4.68;2.75;;;23.90;89.30;;;;;;5093138;28;20393;-77
2021/06/15 01:08:06;;;;;;;4.97;2.80;;;23.90;90.00;;;;;;5115850;28;20026;-77
2021/06/15 01:11:09;;;;;;;2.97;2.83;;;23.90;90.50;;;;;;5098631;28;20026;-77
2021/06/15 01:13:52;;;;;;;5.82;3.03;;;23.90;91.00;;;;;;5116857;28;20473;-77
2021/06/15 01:16:47;;;;;;;3.60;3.30;;;23.90;91.10;;;;;;5096061;28;20043;-77
2021/06/15 01:20:07;;;;;;;3.30;3.10;;;23.70;91.30;;;;;;5115387;28;20055;-77
2021/06/15 01:22:52;;;;;;;2.85;2.65;;;23.60;91.00;;;;;;5107301;28;20126;-77
2021/06/15 01:25:41;;;;;;;3.30;3.00;;;23.40;90.20;;;;;;5096318;28;20112;-77
2021/06/15 01:28:19;;;;;;;2.85;2.55;;;23.40;90.30;;;;;;5103279;28;20043;-77
2021/06/15 01:30:48;;;;;;;3.65;2.72;;;23.40;90.30;;;;;;5115301;28;20024;-77
2021/06/15 01:33:15;;;;;;;4.03;2.85;;;23.40;90.40;;;;;;5116614;28;20024;-77
2021/06/15 01:35:41;;;;;;;3.42;3.22;;;23.40;90.70;;;;;;5116030;28;20106;-77
2021/06/15 01:38:14;;;;;;;3.58;3.35;;;23.50;91.30;;;;;;5116322;28;20110;-77
2021/06/15 01:40:47;;;;;;;3.40;3.10;;;23.60;91.80;;;;;;5116585;28;20092;-77
2021/06/15 01:43:21;;;;;;;3.25;2.88;;;23.50;92.20;;;;;;5116551;28;20557;-77
2021/06/15 01:45:50;;;;;;;3.72;3.13;;;23.50;92.20;;;;;;5098021;28;20165;-77
2021/06/15 01:48:27;;;;;;;3.47;2.88;;;23.60;92.60;;;;;;5115849;28;20061;-77
2021/06/15 01:50:54;;;;;;;3.65;3.33;;;23.40;92.10;;;;;;5097911;28;20023;-77
2021/06/15 01:53:21;;;;;;;3.30;3.03;;;23.40;91.40;;;;;;5116201;28;20016;-77
2021/06/15 01:55:53;;;;;;;3.35;3.05;;;23.40;91.70;;;;;;5115428;28;20028;-77
2021/06/15 01:58:21;;;;;;;3.10;2.90;;;23.30;92.00;;;;;;5115578;28;20027;-77
2021/06/15 02:00:48;;;;;;;3.30;3.00;;;23.20;91.70;;;;;;5115940;28;20080;-77
2021/06/15 02:03:14;;;;;;;4.57;3.35;;;23.30;92.10;;;;;;5115952;28;20023;-77
2021/06/15 02:06:01;;;;;;;3.30;3.00;;;23.30;92.30;;;;;;5115715;28;20046;-77
2021/06/15 02:08:36;;;;;;;4.53;3.30;;;23.30;92.30;;;;;;5097011;28;20028;-77
2021/06/15 02:11:03;;;;;;;4.13;2.97;;;23.40;92.40;;;;;;5077374;28;20048;-77
2021/06/15 02:13:32;;;;;;;3.45;3.20;;;23.40;92.50;;;;;;5102566;28;20027;-77
2021/06/15 02:16:00;;;;;;;3.15;2.85;;;23.30;92.80;;;;;;5099013;28;20051;-77
2021/06/15 02:18:28;;;;;;;5.18;2.80;;;23.30;92.90;;;;;;5094992;28;20020;-77
2021/06/15 02:20:56;;;;;;;3.70;3.40;;;23.20;92.80;;;;;;5095120;28;20038;-77
2021/06/15 02:23:24;;;;;;;3.67;3.40;;;23.30;93.20;;;;;;5095139;28;20067;-77
2021/06/15 02:25:59;;;;;;;3.35;3.03;;;23.20;93.40;;;;;;5103901;28;20024;-77
2021/06/15 02:28:24;;;;;;;6.22;3.63;;;23.20;93.90;;;;;;5096974;28;20040;-77
2021/06/15 02:30:50;;;;;;;5.70;3.15;;;23.20;93.50;;;;;;5115441;28;20047;-77
2021/06/15 02:33:24;;;;;;;3.17;2.95;;;23.20;93.30;;;;;;5115405;28;20065;-77
2021/06/15 02:35:57;;;;;;;3.72;3.33;;;23.20;93.50;;;;;;5096978;28;20480;-77
2021/06/15 02:38:31;;;;;;;3.60;3.00;;;23.10;93.50;;;;;;5115226;28;20385;-77
2021/06/15 02:41:06;;;;;;;3.60;3.30;;;23.00;93.70;;;;;;5114985;28;20016;-77
2021/06/15 02:43:34;;;;;;;3.35;3.15;;;23.00;93.90;;;;;;5115230;28;20081;-77
2021/06/15 02:46:01;;;;;;;2.88;2.67;;;22.90;93.70;;;;;;5115247;28;20051;-77
2021/06/15 02:48:35;;;;;;;2.85;2.75;;;23.00;93.90;;;;;;5114992;28;20050;-77
2021/06/15 02:51:03;;;;;;;4.00;3.00;;;22.90;93.20;;;;;;5114879;28;20028;-77
2021/06/15 02:53:36;;;;;;;4.30;3.28;;;22.90;93.40;;;;;;5114916;28;20548;-77
2021/06/15 02:56:14;;;;;;;5.20;2.97;;;22.90;93.10;;;;;;5114970;28;20027;-77
2021/06/15 02:58:41;;;;;;;4.65;3.75;;;22.90;93.30;;;;;;5114851;28;20373;-77
2021/06/15 03:01:07;;;;;;;3.80;3.22;;;22.90;93.20;;;;;;5096500;28;20024;-77
2021/06/15 03:03:36;;;;;;;3.38;3.08;;;22.90;92.90;;;;;;5115161;28;20039;-77
2021/06/15 03:06:02;;;;;;;3.42;3.13;;;23.00;93.30;;;;;;5115163;28;20019;-77
2021/06/15 03:08:28;;;;;;;4.60;3.60;;;22.90;93.80;;;;;;5115069;28;20033;-77
2021/06/15 03:10:54;;;;;;;6.32;3.78;;;22.90;93.20;;;;;;5114533;28;20381;-77
2021/06/15 03:13:44;;;;;;;4.35;3.10;;;22.90;92.60;;;;;;5114367;28;20028;-77
2021/06/15 03:16:17;;;;;;;3.50;3.20;;;23.00;92.10;;;;;;5114561;28;20028;-77
2021/06/15 03:19:06;;;;;;;5.88;2.97;;;23.00;90.70;;;;;;5114385;28;20453;-77
2021/06/15 03:21:38;;;;;;;3.80;3.28;;;23.00;90.30;;;;;;5114350;28;20035;-77
2021/06/15 03:24:07;;;;;;;7.28;2.90;;;22.90;90.40;;;;;;5096261;28;20029;-77
2021/06/15 03:26:40;;;;;;;2.78;2.58;;;22.90;90.80;;;;;;5114234;28;20374;-77
2021/06/15 03:29:10;;;;;;;3.70;3.25;;;23.00;90.50;;;;;;5113763;28;20405;-77
2021/06/15 03:31:41;;;;;;;2.72;2.53;;;23.00;90.00;;;;;;5114253;28;20385;-77
2021/06/15 03:34:09;;;;;;;3.30;3.00;;;23.00;89.80;;;;;;5114187;28;20028;-77
2021/06/15 03:36:38;;;;;;;3.40;3.00;;;23.00;89.10;;;;;;5113755;28;20039;-77
2021/06/15 03:39:05;;;;;;;3.75;3.15;;;23.00;88.80;;;;;;5113889;28;20104;-77
2021/06/15 03:41:32;;;;;;;3.33;2.90;;;23.00;89.50;;;;;;5113969;28;20031;-77
2021/06/15 03:44:01;;;;;;;3.05;2.80;;;23.00;90.50;;;;;;5114028;28;20106;-77
2021/06/15 03:46:29;;;;;;;3.00;2.60;;;22.90;91.20;;;;;;5113746;28;20011;-77
2021/06/15 03:48:57;;;;;;;3.10;2.80;;;22.90;90.50;;;;;;5113991;28;20023;-77
2021/06/15 03:51:27;;;;;;;3.35;3.15;;;22.80;90.20;;;;;;5113937;28;20027;-77
2021/06/15 03:54:05;;;;;;;6.10;3.33;;;22.90;90.80;;;;;;5095312;28;20140;-77
2021/06/15 03:56:33;;;;;;;4.10;2.72;;;22.80;91.20;;;;;;5113537;28;20031;-77
2021/06/15 03:58:59;;;;;;;3.22;2.92;;;22.80;90.50;;;;;;5095111;28;20034;-77
2021/06/15 04:01:26;;;;;;;5.65;3.30;;;22.70;91.30;;;;;;5095441;28;20538;-77
2021/06/15 04:03:52;;;;;;;3.70;3.40;;;22.60;91.50;;;;;;5095336;28;20031;-77
2021/06/15 04:06:20;;;;;;;5.07;3.25;;;22.70;91.60;;;;;;5113119;28;20042;-77
2021/06/15 04:08:48;;;;;;;5.50;3.50;;;22.60;91.70;;;;;;5078512;28;20020;-77
2021/06/15 04:11:15;;;;;;;6.30;3.35;;;22.70;91.70;;;;;;5096637;28;20028;-76
2021/06/15 04:13:42;;;;;;;4.82;3.28;;;22.70;91.40;;;;;;5113670;28;20016;-77
2021/06/15 04:16:10;;;;;;;5.85;3.30;;;22.60;91.30;;;;;;5112797;28;20102;-77
2021/06/15 04:18:37;;;;;;;3.80;3.38;;;22.60;91.60;;;;;;5095039;28;20012;-77
2021/06/15 04:21:06;;;;;;;3.50;2.90;;;22.50;91.60;;;;;;5113708;28;20028;-77
2021/06/15 04:24:01;;;;;;;3.55;3.25;;;22.50;92.20;;;;;;5090481;28;20028;-77
2021/06/15 04:26:27;;;;;;;5.07;3.97;;;22.50;92.80;;;;;;5084008;28;20028;-77
2021/06/15 04:28:53;;;;;;;3.90;3.58;;;22.50;92.70;;;;;;5093072;28;20036;-77
2021/06/15 04:31:22;;;;;;;4.28;3.63;;;22.50;92.90;;;;;;5092963;28;20031;-77
2021/06/15 04:33:51;;;;;;;4.15;3.85;;;22.50;92.70;;;;;;5093105;28;20024;-76
2021/06/15 04:36:18;;;;;;;3.63;3.35;;;22.50;92.90;;;;;;5093076;28;20028;-76
2021/06/15 04:38:55;;;;;;;4.70;3.20;;;22.50;93.00;;;;;;5074860;28;20452;-76
2021/06/15 04:41:29;;;;;;;5.72;3.53;;;22.50;92.70;;;;;;5083673;28;20472;-76
2021/06/15 04:44:05;;;;;;;5.20;3.35;;;22.60;92.70;;;;;;5117203;28;20038;-76
2021/06/15 04:46:50;;;;;;;3.17;3.00;;;22.50;92.70;;;;;;5117489;28;20027;-77
2021/06/15 04:49:46;;;;;;;4.28;3.40;;;22.50;92.30;;;;;;5098969;28;20020;-76
2021/06/15 04:52:15;;;;;;;3.47;3.13;;;22.50;92.00;;;;;;5116689;28;20024;-77
2021/06/15 04:54:46;;;;;;;3.38;3.08;;;22.50;91.60;;;;;;5098674;28;20023;-77
2021/06/15 04:57:16;;;;;;;4.43;3.30;;;22.60;91.70;;;;;;5116887;28;20145;-77
2021/06/15 04:59:46;;;;;;;3.40;3.05;;;22.50;91.40;;;;;;5116037;28;20031;-77
2021/06/15 05:02:13;;;;;;;3.40;3.10;;;22.40;91.60;;;;;;5106667;28;20099;-77
2021/06/15 05:04:39;;;;;;;3.15;2.95;;;22.40;91.30;;;;;;5096841;28;20028;-77
2021/06/15 05:07:05;;;;;;;3.45;3.17;;;22.50;90.80;;;;;;5078210;28;20496;-77
2021/06/15 05:09:33;;;;;;;3.47;3.13;;;22.60;90.60;;;;;;5096899;28;20020;-77
2021/06/15 05:12:01;;;;;;;6.55;2.90;;;22.60;90.30;;;;;;5108428;28;20019;-77
2021/06/15 05:14:29;;;;;;;2.88;2.67;;;22.60;90.70;;;;;;5116902;28;20026;-77
2021/06/15 05:16:56;;;;;;;4.85;3.15;;;22.70;90.80;;;;;;5116310;28;20107;-77
2021/06/15 05:19:24;;;;;;;6.63;3.60;;;22.70;90.80;;;;;;5116344;28;20107;-77
2021/06/15 05:21:52;;;;;;;5.30;2.88;;;22.70;90.50;;;;;;5116299;28;20055;-77
2021/06/15 05:24:43;;;;;;;3.40;3.05;;;22.80;90.10;;;;;;5116172;28;20061;-77
2021/06/15 05:27:08;;;;;;;4.38;2.45;;;22.90;90.60;;;;;;5097417;28;20490;-77
2021/06/15 05:29:34;;;;;;;3.05;2.58;;;22.90;89.50;;;;;;5115770;28;20024;-77
2021/06/15 05:32:01;;;;;;;2.58;2.40;;;23.00;87.50;;;;;;5097003;28;20031;-77
2021/06/15 05:34:26;;;;;;;2.88;2.65;;;23.00;85.90;;;;;;5098045;28;20020;-77
2021/06/15 05:36:52;;;;;;;3.13;2.83;;;23.10;86.00;;;;;;5116548;28;20085;-77
2021/06/15 05:39:18;;;;;;;5.07;2.83;;;23.10;86.20;;;;;;5116576;28;20073;-77
2021/06/15 05:41:44;;;;;;;2.50;2.40;;;23.10;87.70;;;;;;5109026;28;20075;-77
2021/06/15 05:44:09;;;;;;;6.00;2.50;;;23.10;87.40;;;;;;5095831;28;20028;-77
2021/06/15 05:46:35;;;;;;;2.47;2.28;;;23.10;87.30;;;;;;5095643;28;20081;-77
2021/06/15 05:49:01;;;;;;;2.50;2.30;;;23.10;85.10;;;;;;5095946;28;20020;-77
2021/06/15 05:51:26;;;;;;;3.72;2.47;;;23.10;83.70;;;;;;5081284;28;20019;-77
2021/06/15 05:53:52;;;;;;;3.25;2.50;;;23.10;85.20;;;;;;5116364;28;20507;-77
2021/06/15 05:56:18;;;;;;;2.63;2.53;;;23.10;86.20;;;;;;5115977;28;20028;-77
2021/06/15 05:58:44;;;;;;;3.35;2.45;;;23.10;89.50;;;;;;5116059;28;20028;-77
2021/06/15 06:01:09;;;;;;;3.90;2.80;;;23.10;88.20;;;;;;5097396;28;20028;-77
2021/06/15 06:03:37;;;;;;;5.40;3.10;;;23.10;88.10;;;;;;5112349;28;20080;-77
2021/06/15 06:08:47;;;;;;;3.28;2.33;;;23.20;87.00;;;;;;5095672;28;20516;-77
2021/06/15 06:11:13;;;;;;;2.05;1.95;;;23.20;85.10;;;;;;5107561;28;20044;-77
2021/06/15 06:13:39;;;;;;;2.30;1.67;;;23.30;82.40;;;;;;5095501;28;20383;-76
2021/06/15 06:16:09;;;;;;;3.35;2.42;;;23.40;80.00;;;;;;5095436;28;20023;-76
2021/06/15 06:18:36;;;;;;;2.38;1.92;;;23.50;79.80;;;;;;5095189;28;20118;-76
2021/06/15 06:21:05;;;;;;;2.20;2.00;;;23.60;78.70;;;;;;5095394;28;20134;-77
2021/06/15 06:23:31;;;;;;;7.32;1.80;;;23.60;76.60;;;;;;5104512;28;20016;-76
2021/06/15 06:25:57;;;;;;;2.78;1.80;;;23.60;73.60;;;;;;5115734;28;20024;-76
2021/06/15 06:28:23;;;;;;;3.70;2.20;;;23.60;73.00;;;;;;5097066;28;20050;-76
2021/06/15 06:30:49;;;;;;;3.67;1.42;;;23.70;76.60;;;;;;5115354;28;20034;-76
2021/06/15 06:33:14;;;;;;;3.60;1.58;;;23.70;73.60;;;;;;5097026;28;20108;-76
2021/06/15 06:35:40;;;;;;;1.52;1.42;;;23.80;75.00;;;;;;5115505;28;20035;-76
2021/06/15 06:38:28;;;;;;;3.35;1.70;;;23.90;75.70;;;;;;5098296;28;20473;-76
2021/06/15 06:40:53;;;;;;;1.75;1.60;;;23.90;76.00;;;;;;5113864;28;20034;-77
2021/06/15 06:43:22;;;;;;;1.70;1.60;;;23.90;76.20;;;;;;5115317;28;20024;-76
2021/06/15 06:45:48;;;;;;;2.63;1.92;;;23.90;72.40;;;;;;5097459;28;20038;-76
2021/06/15 06:48:14;;;;;;;2.80;2.05;;;23.90;71.50;;;;;;5115434;28;20027;-76
2021/06/15 06:50:39;;;;;;;3.97;1.77;;;24.00;73.00;;;;;;5094711;28;20099;-76
2021/06/15 06:53:05;;;;;;;1.70;1.60;;;24.00;72.20;;;;;;5101271;28;20043;-76
2021/06/15 06:55:32;;;;;;;3.10;1.83;;;24.00;73.50;;;;;;5114781;28;20085;-76
2021/06/15 06:58:00;;;;;;;3.33;1.63;;;24.10;71.50;;;;;;5110550;28;20466;-77
2021/06/15 07:00:26;;;;;;;1.88;1.50;;;24.10;71.70;;;;;;5104620;28;20015;-79
2021/06/15 07:02:51;;;;;;;1.67;1.23;;;24.20;71.20;;;;;;5104141;28;20053;-77
2021/06/15 07:05:18;;;;;;;2.97;1.80;;;24.20;69.70;;;;;;5097568;28;20032;-77
2021/06/15 07:07:44;;;;;;;2.22;2.00;;;24.20;67.80;;;;;;5107011;28;20373;-77
2021/06/15 07:10:10;;;;;;;4.95;1.40;;;24.20;69.60;;;;;;5107752;28;20016;-77
2021/06/15 07:12:36;;;;;;;4.05;2.15;;;24.30;70.70;;;;;;5095617;28;20502;-77
2021/06/15 07:15:03;;;;;;;3.05;1.38;;;24.40;72.60;;;;;;5105759;28;20015;-77
2021/06/15 07:17:29;;;;;;;2.28;1.63;;;24.40;68.70;;;;;;5104351;28;20062;-77
2021/06/15 07:19:54;;;;;;;1.13;1.05;;;24.40;70.20;;;;;;5102987;28;20043;-77
2021/06/15 07:22:20;;;;;;;2.03;1.33;;;24.50;71.00;;;;;;5108232;28;20023;-77
2021/06/15 07:24:46;;;;;;;4.95;1.60;;;24.50;67.50;;;;;;5107070;28;20032;-76
2021/06/15 07:27:12;;;;;;;1.63;1.40;;;24.40;67.50;;;;;;5110305;28;20522;-77
2021/06/15 07:29:37;;;;;;;1.40;1.30;;;24.50;67.80;;;;;;5083921;28;20024;-77
2021/06/15 07:32:03;;;;;;;1.52;1.38;;;24.60;70.40;;;;;;5098697;28;20016;-77
2021/06/15 07:34:29;;;;;;;5.93;1.88;;;24.60;66.90;;;;;;5093829;28;20095;-76
2021/06/15 07:36:55;;;;;;;3.85;1.40;;;24.50;65.40;;;;;;5078456;28;20118;-76
2021/06/15 07:39:21;;;;;;;2.35;1.73;;;24.60;67.40;;;;;;5106563;28;20540;-77
2021/06/15 07:41:46;;;;;;;2.45;1.45;;;24.60;67.80;;;;;;5089884;28;20503;-77
2021/06/15 07:44:12;;;;;;;2.70;1.38;;;24.60;67.00;;;;;;5099850;28;20024;-77
2021/06/15 07:46:39;;;;;;;1.88;1.77;;;24.60;66.80;;;;;;5101803;28;20407;-77
2021/06/15 07:49:05;;;;;;;2.10;1.52;;;24.70;67.40;;;;;;5097036;28;20016;-78
2021/06/15 07:51:42;;;;;;;4.50;1.80;;;24.60;66.30;;;;;;5095068;28;20469;-78
2021/06/15 07:54:08;;;;;;;3.00;1.80;;;24.50;65.20;;;;;;5111725;28;20118;-77
2021/06/15 07:56:34;;;;;;;7.63;1.63;;;24.40;64.40;;;;;;5101397;28;20093;-76
2021/06/15 07:59:00;;;;;;;3.00;1.50;;;24.50;66.10;;;;;;5093319;28;20542;-76
2021/06/15 08:01:26;;;;;;;1.70;1.60;;;24.50;65.80;;;;;;5111973;28;20114;-76
2021/06/15 08:03:51;;;;;;;1.50;1.40;;;24.60;66.80;;;;;;5113974;28;20465;-76
2021/06/15 08:06:17;;;;;;;3.95;2.10;;;24.60;65.50;;;;;;5113748;28;20111;-76
2021/06/15 08:08:43;;;;;;;1.67;1.30;;;24.60;66.40;;;;;;5095661;28;20429;-76
2021/06/15 08:11:08;;;;;;;2.95;1.70;;;24.60;66.90;;;;;;5113494;28;20084;-77
2021/06/15 08:13:34;;;;;;;3.20;1.80;;;24.60;66.80;;;;;;5094990;28;20024;-76
2021/06/15 08:16:00;;;;;;;3.78;1.70;;;24.50;66.10;;;;;;5074712;28;20032;-76
2021/06/15 08:18:26;;;;;;;1.77;1.45;;;24.60;67.80;;;;;;5074688;28;20059;-76
2021/06/15 08:20:54;;;;;;;5.45;1.98;;;24.70;68.80;;;;;;5093242;28;20473;-76
2021/06/15 08:23:22;;;;;;;1.95;1.60;;;24.70;67.20;;;;;;5074543;28;20028;-76
2021/06/15 08:25:47;;;;;;;2.85;1.60;;;24.70;66.20;;;;;;5106191;28;20030;-76
2021/06/15 08:28:13;;;;;;;4.65;1.50;;;24.80;65.60;;;;;;5113232;28;20044;-76
2021/06/15 08:30:39;;;;;;;3.20;1.75;;;24.80;65.40;;;;;;5095021;28;20486;-76
2021/06/15 08:33:06;;;;;;;3.70;1.67;;;24.70;63.60;;;;;;5108514;28;20027;-76
2021/06/15 08:35:32;;;;;;;3.33;2.10;;;24.80;64.80;;;;;;5095001;28;20027;-76
2021/06/15 08:37:59;;;;;;;4.32;1.67;;;24.80;65.20;;;;;;5113063;28;20625;-76
2021/06/15 08:40:25;;;;;;;3.05;2.00;;;24.90;70.10;;;;;;5113291;28;20110;-76
2021/06/15 08:42:51;;;;;;;2.63;1.85;;;25.00;69.30;;;;;;5113027;28;20126;-77
2021/06/15 08:45:17;;;;;;;2.22;1.92;;;25.00;69.00;;;;;;5095153;28;20173;-76
2021/06/15 08:47:46;;;;;;;3.13;1.60;;;25.10;67.00;;;;;;5113180;28;20027;-76
2021/06/15 08:50:14;;;;;;;2.67;1.70;;;25.00;63.70;;;;;;5095004;28;20403;-76
2021/06/15 08:52:41;;;;;;;2.35;1.80;;;25.00;66.20;;;;;;5113048;28;20436;-76
2021/06/15 08:55:07;;;;;;;2.03;1.80;;;25.10;65.30;;;;;;5113216;28;20020;-76
2021/06/15 08:57:35;;;;;;;1.67;1.58;;;25.10;63.80;;;;;;5112538;28;20481;-76
2021/06/15 09:00:03;;;;;;;1.80;1.70;;;25.10;64.00;;;;;;5094376;28;20051;-76
2021/06/15 09:02:29;;;;;;;1.90;1.80;;;25.20;66.50;;;;;;5112709;28;20016;-76
2021/06/15 09:04:55;;;;;;;2.05;1.90;;;25.20;66.60;;;;;;5094521;28;20027;-76
2021/06/15 09:07:21;;;;;;;1.85;1.75;;;25.20;64.80;;;;;;5112689;28;20027;-76
2021/06/15 09:09:49;;;;;;;1.88;1.40;;;25.20;64.20;;;;;;5094526;28;20023;-75
2021/06/15 09:12:22;;;;;;;1.95;1.83;;;25.30;67.00;;;;;;5112645;28;20054;-76
2021/06/15 09:14:53;;;;;;;1.67;1.58;;;25.30;63.10;;;;;;5112556;28;20384;-76
2021/06/15 09:17:26;;;;;;;8.65;1.85;;;25.40;62.10;;;;;;5094182;28;20024;-76
2021/06/15 09:19:54;;;;;;;2.20;2.00;;;25.40;62.20;;;;;;5112948;28;20110;-76
2021/06/15 09:22:34;;;;;;;2.22;1.83;;;25.40;63.50;;;;;;5094491;28;20042;-76
2021/06/15 09:25:03;;;;;;;4.00;1.88;;;25.40;64.80;;;;;;5110982;28;20115;-76
2021/06/15 09:27:40;;;;;;;3.65;1.80;;;25.60;65.50;;;;;;5113718;28;20396;-76
2021/06/15 09:30:11;;;;;;;2.58;2.00;;;25.70;62.70;;;;;;5100605;28;20458;-75
2021/06/15 09:32:41;;;;;;;2.75;2.55;;;25.70;63.60;;;;;;5096121;28;20074;-76
2021/06/15 09:35:13;;;;;;;6.03;2.03;;;25.80;64.80;;;;;;5080293;28;20024;-76
2021/06/15 09:37:41;;;;;;;2.10;1.90;;;25.80;61.90;;;;;;5088376;28;20160;-76
2021/06/15 09:40:21;;;;;;;2.50;2.10;;;25.80;62.70;;;;;;5097904;28;20051;-76
2021/06/15 09:42:58;;;;;;;2.50;2.17;;;25.80;60.90;;;;;;5106961;28;20035;-76
2021/06/15 09:45:27;;;;;;;4.55;2.20;;;25.70;60.90;;;;;;5077730;28;20029;-76
2021/06/15 09:47:54;;;;;;;4.15;2.20;;;25.70;60.40;;;;;;5106006;28;20019;-76
2021/06/15 09:50:22;;;;;;;2.83;2.42;;;25.80;60.40;;;;;;5115909;28;20031;-76
2021/06/15 09:52:48;;;;;;;5.22;2.20;;;25.80;61.90;;;;;;5088411;28;20050;-76
2021/06/15 09:55:17;;;;;;;2.25;2.05;;;25.90;65.00;;;;;;5100196;28;20091;-77
2021/06/15 09:57:48;;;;;;;2.35;2.03;;;26.00;65.30;;;;;;5106729;28;20020;-77
2021/06/15 10:00:17;;;;;;;3.20;2.40;;;26.00;66.40;;;;;;5093796;28;20114;-76
2021/06/15 10:02:49;;;;;;;3.13;2.63;;;26.20;64.60;;;;;;5085820;28;20036;-76
2021/06/15 10:05:35;;;;;;;3.38;2.25;;;26.30;67.30;;;;;;5082764;28;20392;-77
2021/06/15 10:08:12;;;;;;;6.32;2.60;;;26.40;64.20;;;;;;5100276;28;20021;-76
2021/06/15 10:10:43;;;;;;;3.97;2.25;;;26.40;60.80;;;;;;5087386;28;20016;-76
2021/06/15 10:13:09;;;;;;;;;;;26.40;60.80;;;;;;5080061;28;20111;-76
2021/06/15 10:15:38;;;;;;;3.35;2.30;;;26.30;60.40;;;;;;5108493;28;19912;-76
2021/06/15 10:18:04;;;;;;;4.82;2.50;;;26.50;61.60;;;;;;5101736;28;20019;-77
2021/06/15 10:20:32;;;;;;;3.30;3.03;;;26.60;61.50;;;;;;5110109;28;20106;-77
2021/06/15 10:22:59;;;;;;;2.20;2.10;;;26.60;62.10;;;;;;5100175;28;20773;-77
2021/06/15 10:25:28;;;;;;;4.13;2.72;;;26.80;60.90;;;;;;5103806;28;20047;-77
2021/06/15 10:27:55;;;;;;;2.80;2.60;;;26.90;59.30;;;;;;5092810;28;20097;-77
2021/06/15 10:30:33;;;;;;;3.88;2.40;;;26.80;58.10;;;;;;5104266;28;20103;-76
2021/06/15 10:33:04;;;;;;;2.00;1.90;;;26.70;58.70;;;;;;5106442;28;20018;-77
2021/06/15 10:35:35;;;;;;;5.40;2.63;;;26.80;59.90;;;;;;5084333;28;20027;-76
2021/06/15 10:38:02;;;;;;;2.67;2.47;;;26.80;58.90;;;;;;5098325;28;20016;-77
2021/06/15 10:40:34;;;;;;;2.42;2.22;;;26.90;62.10;;;;;;5100689;28;20034;-77
2021/06/15 10:43:20;;;;;;;4.18;2.55;;;27.10;61.90;;;;;;5099892;28;20043;-77
2021/06/15 10:46:00;;;;;;;5.32;3.03;;;27.30;61.40;;;;;;5099788;28;20059;-76
2021/06/15 10:48:29;;;;;;;4.75;2.60;;;27.40;59.70;;;;;;5091988;28;20035;-77
2021/06/15 10:50:58;;;;;;;7.00;3.28;;;27.40;58.80;;;;;;5098584;28;20014;-77
2021/06/15 10:53:38;;;;;;;3.92;2.47;;;27.50;57.30;;;;;;5101925;28;20024;-77
2021/06/15 10:56:05;;;;;;;4.40;2.83;;;27.40;57.00;;;;;;5098730;28;20058;-77
2021/06/15 10:58:38;;;;;;;4.07;2.28;;;27.40;57.50;;;;;;5100570;28;20016;-77
2021/06/15 11:01:27;;;;;;;2.92;2.30;;;27.60;60.60;;;;;;5103304;28;20035;-77
2021/06/15 11:04:04;;;;;;;3.05;2.65;;;27.80;60.40;;;;;;5080694;28;20059;-77
2021/06/15 11:06:30;;;;;;;7.75;2.72;;;28.00;61.30;;;;;;5099598;28;20012;-77
2021/06/15 11:09:15;;;;;;;4.13;2.50;;;28.00;58.40;;;;;;5107973;28;20080;-76
2021/06/15 11:11:42;;;;;;;5.28;2.70;;;28.20;60.90;;;;;;5099812;28;20074;-77
2021/06/15 11:14:26;;;;;;;2.92;2.53;;;28.20;58.70;;;;;;5072628;28;20027;-77
2021/06/15 11:16:55;;;;;;;3.83;2.55;;;28.30;60.40;;;;;;5103517;28;20032;-77
2021/06/15 11:19:21;;;;;;;5.22;2.90;;;28.30;58.50;;;;;;5107016;28;20756;-77
2021/06/15 11:21:59;;;;;;;4.13;3.47;;;28.40;58.50;;;;;;5080356;28;20119;-77
2021/06/15 11:24:37;;;;;;;4.47;3.13;;;28.40;57.50;;;;;;5098361;28;20028;-76
2021/06/15 11:27:16;;;;;;;3.00;2.80;;;28.40;57.70;;;;;;5093102;28;20011;-77
2021/06/15 11:29:47;;;;;;;5.55;3.13;;;28.30;56.10;;;;;;5072142;28;20130;-77
2021/06/15 11:32:23;;;;;;;5.83;2.70;;;28.40;58.40;;;;;;5095104;28;20508;-77
2021/06/15 11:34:55;;;;;;;6.57;3.55;;;28.70;61.90;;;;;;5081280;28;20770;-77
2021/06/15 11:37:23;;;;;;;;;;;28.60;55.60;;;;;;5092649;28;20028;-77
2021/06/15 11:39:51;;;;;;;5.18;3.10;;;28.80;59.60;;;;;;5089406;28;19985;-77
2021/06/15 11:42:30;;;;;;;3.03;2.83;;;28.90;60.20;;;;;;5096671;28;20023;-77
2021/06/15 11:45:12;;;;;;;2.65;2.45;;;29.10;61.10;;;;;;5091245;28;20023;-77
2021/06/15 11:47:52;;;;;;;2.33;2.20;;;29.30;61.60;;;;;;5090635;28;20031;-77
2021/06/15 11:50:34;;;;;;;5.18;3.20;;;29.30;60.70;;;;;;5103173;28;20031;-76
2021/06/15 11:53:10;;;;;;;2.45;2.25;;;29.30;60.70;;;;;;5096555;28;20669;-77
2021/06/15 11:55:59;;;;;;;3.03;2.83;;;29.30;59.80;;;;;;5104221;28;20028;-77
2021/06/15 11:58:28;;;;;;;3.13;2.80;;;29.30;56.40;;;;;;5098562;28;20160;-76
2021/06/15 12:01:14;;;;;;;6.07;3.22;;;29.40;55.70;;;;;;5099208;28;20469;-77
2021/06/15 12:03:42;;;;;;;4.75;3.22;;;29.50;55.80;;;;;;5106506;28;20031;-77
2021/06/15 12:06:10;;;;;;;5.93;3.58;;;29.70;55.50;;;;;;5098361;28;20027;-76
2021/06/15 12:08:43;;;;;;;6.28;3.80;;;29.70;55.90;;;;;;5078416;28;20535;-76
2021/06/15 12:11:15;;;;;;;4.40;3.33;;;29.70;55.40;;;;;;5073571;28;20512;-76
2021/06/15 12:13:42;;;;;;;4.50;3.75;;;29.70;54.30;;;;;;5085047;28;20100;-76
2021/06/15 12:16:11;;;;;;;4.50;3.08;;;29.80;56.10;;;;;;5098460;28;20027;-76
2021/06/15 12:18:45;;;;;;;4.15;3.53;;;29.90;55.90;;;;;;5107021;28;20032;-76
2021/06/15 12:21:12;;;;;;;4.20;3.47;;;30.00;54.70;;;;;;5088892;28;20468;-76
2021/06/15 12:23:38;;;;;;;7.63;3.28;;;30.00;54.20;;;;;;5099742;28;20415;-76
2021/06/15 12:26:03;;;;;;;4.72;3.50;;;30.00;54.50;;;;;;5102632;28;20032;-76
2021/06/15 12:28:29;;;;;;;5.30;4.13;;;30.10;55.20;;;;;;5106497;28;20515;-76
2021/06/15 12:31:11;;;;;;;3.42;2.88;;;30.10;55.80;;;;;;5098798;28;20015;-76
2021/06/15 12:33:38;;;;;;;4.35;3.15;;;30.30;56.00;;;;;;5096611;28;20465;-76
2021/06/15 12:36:10;;;;;;;3.40;3.08;;;30.30;55.60;;;;;;5104912;28;20023;-76
2021/06/15 12:38:37;;;;;;;5.07;2.80;;;30.50;56.20;;;;;;5102304;28;20028;-76
2021/06/15 12:41:07;;;;;;;6.38;3.15;;;30.50;56.20;;;;;;5098984;28;20028;-76
2021/06/15 12:43:33;;;;;;;3.83;3.53;;;30.60;54.60;;;;;;5104784;28;20040;-76
2021/06/15 12:46:08;;;;;;;5.93;3.28;;;30.50;55.80;;;;;;5098162;28;20028;-76
2021/06/15 12:48:42;;;;;;;3.83;3.47;;;30.60;55.50;;;;;;5104434;28;20038;-76
2021/06/15 12:51:10;;;;;;;3.63;3.33;;;30.50;54.00;;;;;;5100224;28;20084;-75
2021/06/15 12:53:38;;;;;;;4.10;3.20;;;30.70;55.20;;;;;;5099626;28;20240;-76
2021/06/15 12:56:16;;;;;;;6.70;4.22;;;30.80;54.30;;;;;;5086032;28;20469;-76
2021/06/15 12:58:44;;;;;;;5.28;3.75;;;30.80;54.10;;;;;;5105145;28;20035;-76
2021/06/15 13:01:16;;;;;;;3.80;3.50;;;30.80;53.90;;;;;;5095532;28;20024;-76
2021/06/15 13:03:47;;;;;;;3.28;3.00;;;30.70;54.90;;;;;;5110008;28;20031;-76
2021/06/15 13:06:13;;;;;;;5.07;3.90;;;30.80;55.50;;;;;;5079143;28;20144;-76